createdAt,value
2019-01-04T00:00:44.439Z,950.52
2019-01-04T00:01:44.422Z,950.50
2019-01-04T00:02:44.411Z,950.57
2019-01-04T00:03:44.393Z,950.60
2019-01-04T00:04:44.436Z,950.57
2019-01-04T00:05:44.415Z,950.54
2019-01-04T00:06:44.360Z,950.54
2019-01-04T00:07:44.589Z,950.50
2019-01-04T00:08:44.342Z,950.49
2019-01-04T00:09:44.333Z,950.54
2019-01-04T00:10:44.340Z,950.54
2019-01-04T00:11:44.313Z,950.51
2019-01-04T00:12:44.293Z,950.51
2019-01-04T00:13:44.293Z,950.50
2019-01-04T00:14:44.281Z,950.50
2019-01-04T00:15:44.297Z,950.50
2019-01-04T00:16:44.265Z,950.52
2019-01-04T00:17:44.248Z,950.53
2019-01-04T00:18:44.236Z,950.58
2019-01-04T00:19:44.231Z,950.61
2019-01-04T00:20:44.227Z,950.61
2019-01-04T00:21:44.208Z,950.64
2019-01-04T00:22:44.191Z,950.62
2019-01-04T00:23:44.174Z,950.66
2019-01-04T00:24:44.167Z,950.63
2019-01-04T00:25:44.230Z,950.63
2019-01-04T00:26:44.147Z,950.63
2019-01-04T00:27:44.140Z,950.62
2019-01-04T00:28:44.120Z,950.65
2019-01-04T00:29:44.110Z,950.61
2019-01-04T00:30:44.098Z,950.58
2019-01-04T00:31:44.120Z,950.57
2019-01-04T00:32:44.078Z,950.60
2019-01-04T00:33:44.074Z,950.59
2019-01-04T00:34:44.086Z,950.56
2019-01-04T00:35:44.050Z,950.56
2019-01-04T00:36:44.048Z,950.58
2019-01-04T00:37:44.036Z,950.57
2019-01-04T00:38:44.016Z,950.56
2019-01-04T00:39:44.009Z,950.57
2019-01-04T00:40:43.990Z,950.57
2019-01-04T00:41:44.000Z,950.56
2019-01-04T00:42:43.966Z,950.57
2019-01-04T00:43:43.975Z,950.55
2019-01-04T00:44:43.957Z,950.56
2019-01-04T00:45:43.932Z,950.57
2019-01-04T00:46:43.952Z,950.55
2019-01-04T00:47:43.913Z,950.56
2019-01-04T00:48:43.905Z,950.59
2019-01-04T00:49:43.921Z,950.63
2019-01-04T00:50:43.892Z,950.61
2019-01-04T00:51:43.890Z,950.63
2019-01-04T00:52:43.857Z,950.60
2019-01-04T00:53:43.844Z,950.54
2019-01-04T00:54:43.837Z,950.51
2019-01-04T00:55:43.832Z,950.55
2019-01-04T00:56:43.855Z,950.61
2019-01-04T00:57:43.803Z,950.56
2019-01-04T00:58:43.797Z,950.57
2019-01-04T00:59:43.778Z,950.60
2019-01-04T01:00:43.774Z,950.61
2019-01-04T01:01:43.767Z,950.60
2019-01-04T01:02:43.765Z,950.63
2019-01-04T01:03:43.738Z,950.59
2019-01-04T01:04:43.726Z,950.61
2019-01-04T01:05:43.723Z,950.55
2019-01-04T01:06:43.711Z,950.57
2019-01-04T01:07:43.743Z,950.59
2019-01-04T01:08:43.692Z,950.58
2019-01-04T01:09:43.669Z,950.59
2019-01-04T01:10:43.664Z,950.58
2019-01-04T01:11:43.656Z,950.60
2019-01-04T01:12:43.655Z,950.57
2019-01-04T01:13:43.638Z,950.54
2019-01-04T01:14:43.616Z,950.56
2019-01-04T01:15:43.606Z,950.56
2019-01-04T01:16:43.592Z,950.56
2019-01-04T01:17:43.613Z,950.51
2019-01-04T01:18:43.572Z,950.54
2019-01-04T01:19:43.563Z,950.49
2019-01-04T01:20:43.574Z,950.48
2019-01-04T01:21:43.537Z,950.47
2019-01-04T01:22:43.526Z,950.51
2019-01-04T01:23:43.535Z,950.52
2019-01-04T01:24:43.506Z,950.47
2019-01-04T01:25:43.496Z,950.50
2019-01-04T01:26:43.514Z,950.49
2019-01-04T01:27:43.482Z,950.51
2019-01-04T01:28:43.475Z,950.52
2019-01-04T01:29:43.455Z,950.51
2019-01-04T01:30:43.445Z,950.56
2019-01-04T01:31:43.441Z,950.53
2019-01-04T01:32:43.423Z,950.52
2019-01-04T01:33:43.420Z,950.54
2019-01-04T01:34:43.396Z,950.59
2019-01-04T01:35:43.388Z,950.63
2019-01-04T01:36:43.377Z,950.60
2019-01-04T01:37:43.360Z,950.63
2019-01-04T01:38:43.386Z,950.62
2019-01-04T01:39:43.340Z,950.64
2019-01-04T01:40:43.329Z,950.61
2019-01-04T01:41:43.324Z,950.61
2019-01-04T01:42:43.313Z,950.59
2019-01-04T01:43:43.311Z,950.58
2019-01-04T01:44:43.300Z,950.58
2019-01-04T01:45:43.280Z,950.52
2019-01-04T01:46:43.261Z,950.54
2019-01-04T01:47:43.259Z,950.53
2019-01-04T01:48:43.279Z,950.55
2019-01-04T01:49:43.239Z,950.56
2019-01-04T01:50:43.238Z,950.52
2019-01-04T01:51:43.207Z,950.54
2019-01-04T01:52:43.196Z,950.56
2019-01-04T01:53:43.215Z,950.60
2019-01-04T01:54:43.177Z,950.58
2019-01-04T01:55:43.172Z,950.61
2019-01-04T01:56:43.168Z,950.61
2019-01-04T01:57:43.141Z,950.58
2019-01-04T01:58:43.131Z,950.59
2019-01-04T01:59:43.145Z,950.59
2019-01-04T02:00:43.122Z,950.53
2019-01-04T02:01:43.104Z,950.50
2019-01-04T02:02:43.100Z,950.52
2019-01-04T02:03:43.083Z,950.52
2019-01-04T02:04:43.079Z,950.52
2019-01-04T02:05:43.061Z,950.53
2019-01-04T02:06:43.054Z,950.54
2019-01-04T02:07:43.033Z,950.53
2019-01-04T02:08:43.034Z,950.53
2019-01-04T02:09:43.025Z,950.53
2019-01-04T02:10:43.010Z,950.59
2019-01-04T02:11:42.988Z,950.55
2019-01-04T02:12:42.979Z,950.58
2019-01-04T02:13:42.970Z,950.56
2019-01-04T02:14:42.982Z,950.50
2019-01-04T02:15:42.971Z,950.53
2019-01-04T02:16:42.934Z,950.56
2019-01-04T02:17:42.934Z,950.52
2019-01-04T02:18:42.915Z,950.55
2019-01-04T02:19:42.914Z,950.53
2019-01-04T02:20:42.904Z,950.52
2019-01-04T02:21:42.885Z,950.52
2019-01-04T02:22:42.874Z,950.54
2019-01-04T02:23:42.868Z,950.52
2019-01-04T02:24:42.869Z,950.54
2019-01-04T02:25:42.835Z,950.51
2019-01-04T02:26:42.824Z,950.54
2019-01-04T02:27:42.822Z,950.54
2019-01-04T02:28:42.805Z,950.52
2019-01-04T02:29:42.810Z,950.59
2019-01-04T02:30:42.783Z,950.63
2019-01-04T02:31:42.773Z,950.61
2019-01-04T02:32:42.757Z,950.61
2019-01-04T02:33:42.754Z,950.67
2019-01-04T02:34:42.776Z,950.65
2019-01-04T02:35:42.741Z,950.67
2019-01-04T02:36:42.712Z,950.66
2019-01-04T02:37:42.703Z,950.68
2019-01-04T02:38:42.698Z,950.69
2019-01-04T02:39:42.700Z,950.71
2019-01-04T02:40:42.711Z,950.69
2019-01-04T02:41:42.685Z,950.69
2019-01-04T02:42:42.650Z,950.65
2019-01-04T02:43:42.644Z,950.67
2019-01-04T02:44:42.636Z,950.64
2019-01-04T02:45:42.660Z,950.68
2019-01-04T02:46:42.609Z,950.68
2019-01-04T02:47:42.613Z,950.65
2019-01-04T02:48:42.582Z,950.63
2019-01-04T02:49:42.571Z,950.61
2019-01-04T02:50:42.589Z,950.56
2019-01-04T02:51:42.559Z,950.54
2019-01-04T02:52:42.555Z,950.52
2019-01-04T02:53:42.529Z,950.52
2019-01-04T02:54:42.519Z,950.51
2019-01-04T02:55:42.542Z,950.51
2019-01-04T02:56:42.500Z,950.51
2019-01-04T02:57:42.494Z,950.54
2019-01-04T02:58:42.485Z,950.54
2019-01-04T02:59:42.462Z,950.56
2019-01-04T03:00:42.466Z,950.54
2019-01-04T03:01:42.442Z,950.54
2019-01-04T03:02:42.443Z,950.54
2019-01-04T03:03:42.434Z,950.59
2019-01-04T03:04:42.420Z,950.53
2019-01-04T03:05:42.419Z,950.51
2019-01-04T03:06:42.387Z,950.51
2019-01-04T03:07:42.383Z,950.51
2019-01-04T03:08:42.368Z,950.45
2019-01-04T03:09:42.368Z,950.44
2019-01-04T03:10:42.368Z,950.48
2019-01-04T03:11:42.336Z,950.48
2019-01-04T03:12:42.329Z,950.44
2019-01-04T03:13:42.308Z,950.44
2019-01-04T03:14:42.370Z,950.36
2019-01-04T03:15:42.316Z,950.34
2019-01-04T03:16:42.286Z,950.37
2019-01-04T03:17:42.272Z,950.34
2019-01-04T03:18:42.260Z,950.32
2019-01-04T03:19:42.258Z,950.32
2019-01-04T03:20:42.249Z,950.33
2019-01-04T03:21:42.245Z,950.32
2019-01-04T03:22:42.210Z,950.32
2019-01-04T03:23:42.198Z,950.27
2019-01-04T03:24:42.195Z,950.22
2019-01-04T03:25:42.195Z,950.23
2019-01-04T03:26:42.173Z,950.22
2019-01-04T03:27:42.178Z,950.21
2019-01-04T03:28:42.150Z,950.20
2019-01-04T03:29:42.133Z,950.18
2019-01-04T03:30:42.156Z,950.19
2019-01-04T03:31:42.129Z,950.18
2019-01-04T03:32:42.131Z,950.19
2019-01-04T03:33:42.124Z,950.14
2019-01-04T03:34:42.082Z,950.17
2019-01-04T03:35:42.111Z,950.09
2019-01-04T03:36:42.077Z,950.07
2019-01-04T03:37:42.070Z,950.06
2019-01-04T03:38:42.043Z,950.09
2019-01-04T03:39:42.049Z,950.03
2019-01-04T03:40:42.017Z,950.10
2019-01-04T03:41:42.018Z,950.12
2019-01-04T03:42:41.994Z,950.17
2019-01-04T03:43:41.981Z,950.20
2019-01-04T03:44:41.978Z,950.18
2019-01-04T03:45:41.997Z,950.15
2019-01-04T03:46:41.963Z,950.17
2019-01-04T03:47:41.952Z,950.14
2019-01-04T03:48:41.926Z,950.15
2019-01-04T03:49:41.913Z,950.15
2019-01-04T03:50:41.907Z,950.13
2019-01-04T03:51:41.928Z,950.16
2019-01-04T03:52:41.882Z,950.10
2019-01-04T03:53:41.870Z,950.20
2019-01-04T03:54:41.860Z,950.17
2019-01-04T03:55:41.850Z,950.15
2019-01-04T03:56:41.860Z,950.14
2019-01-04T03:57:41.837Z,950.14
2019-01-04T03:58:41.825Z,950.24
2019-01-04T03:59:41.854Z,950.20
2019-01-04T04:00:41.804Z,950.18
2019-01-04T04:01:41.804Z,950.19
2019-01-04T04:02:41.802Z,950.27
2019-01-04T04:03:41.793Z,950.27
2019-01-04T04:04:41.751Z,950.27
2019-01-04T04:05:41.740Z,950.30
2019-01-04T04:06:41.746Z,950.24
2019-01-04T04:07:41.743Z,950.23
2019-01-04T04:08:41.707Z,950.21
2019-01-04T04:09:41.714Z,950.24
2019-01-04T04:10:41.688Z,950.21
2019-01-04T04:11:41.716Z,950.25
2019-01-04T04:12:41.663Z,950.23
2019-01-04T04:13:41.654Z,950.22
2019-01-04T04:14:41.639Z,950.20
2019-01-04T04:15:41.643Z,950.17
2019-01-04T04:16:41.624Z,950.18
2019-01-04T04:17:41.640Z,950.22
2019-01-04T04:18:41.610Z,950.26
2019-01-04T04:19:41.598Z,950.25
2019-01-04T04:20:41.585Z,950.28
2019-01-04T04:21:41.578Z,950.22
2019-01-04T04:22:41.567Z,950.26
2019-01-04T04:23:41.548Z,950.23
2019-01-04T04:24:41.536Z,950.23
2019-01-04T04:25:41.528Z,950.25
2019-01-04T04:26:41.509Z,950.25
2019-01-04T04:27:41.521Z,950.30
2019-01-04T04:28:41.485Z,950.32
2019-01-04T04:29:41.480Z,950.31
2019-01-04T04:30:41.475Z,950.32
2019-01-04T04:31:41.455Z,950.34
2019-01-04T04:32:41.459Z,950.32
2019-01-04T04:33:41.436Z,950.35
2019-01-04T04:34:41.421Z,950.35
2019-01-04T04:35:41.423Z,950.35
2019-01-04T04:36:41.402Z,950.37
2019-01-04T04:37:41.420Z,950.40
2019-01-04T04:38:41.376Z,950.42
2019-01-04T04:39:41.372Z,950.46
2019-01-04T04:40:41.355Z,950.44
2019-01-04T04:41:41.343Z,950.46
2019-01-04T04:42:41.341Z,950.46
2019-01-04T04:43:41.343Z,950.46
2019-01-04T04:44:41.317Z,950.49
2019-01-04T04:45:41.307Z,950.46
2019-01-04T04:46:41.298Z,950.46
2019-01-04T04:47:41.280Z,950.44
2019-01-04T04:48:41.283Z,950.41
2019-01-04T04:49:41.315Z,950.45
2019-01-04T04:50:41.249Z,950.45
2019-01-04T04:51:41.235Z,950.40
2019-01-04T04:52:41.236Z,950.39
2019-01-04T04:53:41.235Z,950.37
2019-01-04T04:54:41.214Z,950.35
2019-01-04T04:55:41.196Z,950.34
2019-01-04T04:56:41.178Z,950.35
2019-01-04T04:57:41.180Z,950.34
2019-01-04T04:58:41.182Z,950.33
2019-01-04T04:59:41.155Z,950.33
2019-01-04T05:00:41.136Z,950.32
2019-01-04T05:01:41.126Z,950.33
2019-01-04T05:02:41.113Z,950.33
2019-01-04T05:03:41.119Z,950.32
2019-01-04T05:04:41.105Z,950.33
2019-01-04T05:05:41.089Z,950.36
2019-01-04T05:06:41.092Z,950.34
2019-01-04T05:07:41.057Z,950.35
2019-01-04T05:08:41.063Z,950.37
2019-01-04T05:09:41.041Z,950.37
2019-01-04T05:10:41.033Z,950.43
2019-01-04T05:11:41.038Z,950.41
2019-01-04T05:12:41.005Z,950.44
2019-01-04T05:13:41.007Z,950.44
2019-01-04T05:14:41.001Z,950.47
2019-01-04T05:15:40.976Z,950.41
2019-01-04T05:16:40.987Z,950.45
2019-01-04T05:17:40.959Z,950.49
2019-01-04T05:18:40.960Z,950.45
2019-01-04T05:19:40.926Z,950.50
2019-01-04T05:20:40.922Z,950.52
2019-01-04T05:21:40.906Z,950.50
2019-01-04T05:22:40.910Z,950.47
2019-01-04T05:23:41.084Z,950.48
2019-01-04T05:24:40.872Z,950.52
2019-01-04T05:25:40.860Z,950.48
2019-01-04T05:26:40.856Z,950.48
2019-01-04T05:27:40.859Z,950.50
2019-01-04T05:28:40.844Z,950.47
2019-01-04T05:29:40.836Z,950.44
2019-01-04T05:30:40.812Z,950.46
2019-01-04T05:31:40.820Z,950.45
2019-01-04T05:32:40.798Z,950.42
2019-01-04T05:33:40.779Z,950.43
2019-01-04T05:34:40.787Z,950.45
2019-01-04T05:35:40.752Z,950.42
2019-01-04T05:36:40.778Z,950.44
2019-01-04T05:37:40.767Z,950.47
2019-01-04T05:38:40.719Z,950.51
2019-01-04T05:39:40.723Z,950.48
2019-01-04T05:40:40.714Z,950.47
2019-01-04T05:41:40.688Z,950.50
2019-01-04T05:42:40.678Z,950.46
2019-01-04T05:43:40.669Z,950.48
2019-01-04T05:44:40.684Z,950.46
2019-01-04T05:45:40.648Z,950.49
2019-01-04T05:46:40.647Z,950.49
2019-01-04T05:47:40.622Z,950.47
2019-01-04T05:48:40.612Z,950.45
2019-01-04T05:49:40.613Z,950.48
2019-01-04T05:50:40.593Z,950.47
2019-01-04T05:51:40.583Z,950.48
2019-01-04T05:52:40.577Z,950.45
2019-01-04T05:53:40.561Z,950.42
2019-01-04T05:54:40.564Z,950.48
2019-01-04T05:55:40.533Z,950.51
2019-01-04T05:56:40.535Z,950.49
2019-01-04T05:57:40.518Z,950.42
2019-01-04T05:58:40.519Z,950.48
2019-01-04T05:59:40.531Z,950.48
2019-01-04T06:00:40.487Z,950.42
2019-01-04T06:01:40.467Z,950.46
2019-01-04T06:02:40.456Z,950.42
2019-01-04T06:03:40.455Z,950.45
2019-01-04T06:04:40.457Z,950.44
2019-01-04T06:05:40.440Z,950.41
2019-01-04T06:06:40.411Z,950.45
2019-01-04T06:07:40.399Z,950.44
2019-01-04T06:08:40.392Z,950.46
2019-01-04T06:09:40.386Z,950.43
2019-01-04T06:10:40.405Z,950.44
2019-01-04T06:11:40.363Z,950.44
2019-01-04T06:12:40.349Z,950.43
2019-01-04T06:13:40.341Z,950.43
2019-01-04T06:14:40.325Z,950.39
2019-01-04T06:15:40.330Z,950.40
2019-01-04T06:16:40.333Z,950.42
2019-01-04T06:17:40.292Z,950.40
2019-01-04T06:18:40.280Z,950.40
2019-01-04T06:19:40.290Z,950.43
2019-01-04T06:20:40.279Z,950.44
2019-01-04T06:21:40.263Z,950.39
2019-01-04T06:22:40.240Z,950.37
2019-01-04T06:23:40.233Z,950.40
2019-01-04T06:24:40.216Z,950.40
2019-01-04T06:25:40.220Z,950.43
2019-01-04T06:26:40.200Z,950.43
2019-01-04T06:27:40.201Z,950.45
2019-01-04T06:28:40.170Z,950.45
2019-01-04T06:29:40.204Z,950.42
2019-01-04T06:30:40.165Z,950.41
2019-01-04T06:31:40.140Z,950.38
2019-01-04T06:32:40.128Z,950.41
2019-01-04T06:33:40.116Z,950.40
2019-01-04T06:34:40.114Z,950.39
2019-01-04T06:35:40.140Z,950.40
2019-01-04T06:36:40.094Z,950.41
2019-01-04T06:37:40.072Z,950.40
2019-01-04T06:38:40.065Z,950.47
2019-01-04T06:39:40.056Z,950.46
2019-01-04T06:40:40.077Z,950.48
2019-01-04T06:41:40.036Z,950.47
2019-01-04T06:42:40.025Z,950.45
2019-01-04T06:43:40.008Z,950.42
2019-01-04T06:44:40.009Z,950.40
2019-01-04T06:45:39.996Z,950.41
2019-01-04T06:46:39.994Z,950.42
2019-01-04T06:47:39.969Z,950.42
2019-01-04T06:48:39.959Z,950.46
2019-01-04T06:49:39.949Z,950.41
2019-01-04T06:50:39.945Z,950.48
2019-01-04T06:51:39.944Z,950.51
2019-01-04T06:52:39.918Z,950.52
2019-01-04T06:53:39.899Z,950.58
2019-01-04T06:54:39.929Z,950.62
2019-01-04T06:55:39.882Z,950.60
2019-01-04T06:56:39.892Z,950.56
2019-01-04T06:57:39.862Z,950.60
2019-01-04T06:58:39.855Z,950.67
2019-01-04T06:59:39.840Z,950.69
2019-01-04T07:00:39.831Z,950.72
2019-01-04T07:01:39.843Z,950.74
2019-01-04T07:02:39.815Z,950.75
2019-01-04T07:03:39.798Z,950.77
2019-01-04T07:04:39.780Z,950.78
2019-01-04T07:05:39.769Z,950.86
2019-01-04T07:06:39.784Z,950.81
2019-01-04T07:07:39.764Z,950.80
2019-01-04T07:08:39.736Z,950.82
2019-01-04T07:09:39.731Z,950.84
2019-01-04T07:10:39.717Z,950.85
2019-01-04T07:11:39.723Z,950.88
2019-01-04T07:12:39.696Z,950.84
2019-01-04T07:13:39.701Z,950.87
2019-01-04T07:14:39.671Z,950.83
2019-01-04T07:15:39.666Z,950.82
2019-01-04T07:16:39.676Z,950.86
2019-01-04T07:17:39.643Z,950.88
2019-01-04T07:18:39.632Z,950.88
2019-01-04T07:19:39.634Z,950.93
2019-01-04T07:20:39.606Z,950.90
2019-01-04T07:21:39.610Z,950.91
2019-01-04T07:22:39.585Z,950.91
2019-01-04T07:23:39.581Z,950.94
2019-01-04T07:24:39.567Z,950.90
2019-01-04T07:25:39.571Z,950.88
2019-01-04T07:26:39.569Z,950.91
2019-01-04T07:27:39.530Z,950.91
2019-01-04T07:28:39.518Z,950.96
2019-01-04T07:29:39.522Z,950.97
2019-01-04T07:30:39.494Z,950.95
2019-01-04T07:31:39.525Z,951.03
2019-01-04T07:32:39.480Z,951.01
2019-01-04T07:33:39.462Z,951.07
2019-01-04T07:34:39.451Z,951.03
2019-01-04T07:35:39.450Z,951.04
2019-01-04T07:36:39.430Z,951.07
2019-01-04T07:37:39.456Z,951.08
2019-01-04T07:38:39.408Z,951.07
2019-01-04T07:39:39.397Z,951.08
2019-01-04T07:40:39.385Z,951.07
2019-01-04T07:41:39.375Z,951.13
2019-01-04T07:42:39.382Z,951.12
2019-01-04T07:43:39.362Z,951.14
2019-01-04T07:44:39.343Z,951.11
2019-01-04T07:45:39.331Z,951.18
2019-01-04T07:46:39.319Z,951.20
2019-01-04T07:47:39.327Z,951.23
2019-01-04T07:48:39.302Z,951.20
2019-01-04T07:49:39.297Z,951.26
2019-01-04T07:50:39.287Z,951.24
2019-01-04T07:51:39.272Z,951.25
2019-01-04T07:52:39.273Z,951.26
2019-01-04T07:53:39.247Z,951.31
2019-01-04T07:54:39.241Z,951.31
2019-01-04T07:55:39.232Z,951.33
2019-01-04T07:56:39.215Z,951.35
2019-01-04T07:57:39.219Z,951.42
2019-01-04T07:58:39.202Z,951.38
2019-01-04T07:59:39.183Z,951.35
2019-01-04T08:00:39.168Z,951.37
2019-01-04T08:01:39.164Z,951.34
2019-01-04T08:02:39.168Z,951.39
2019-01-04T08:03:39.134Z,951.41
2019-01-04T08:04:39.122Z,951.38
2019-01-04T08:05:39.118Z,951.39
2019-01-04T08:06:39.102Z,951.39
2019-01-04T08:07:39.149Z,951.38
2019-01-04T08:08:39.087Z,951.39
2019-01-04T08:09:39.073Z,951.41
2019-01-04T08:10:39.062Z,951.43
2019-01-04T08:11:39.063Z,951.36
2019-01-04T08:12:39.036Z,951.39
2019-01-04T08:13:39.051Z,951.39
2019-01-04T08:14:39.019Z,951.39
2019-01-04T08:15:39.002Z,951.37
2019-01-04T08:16:38.996Z,951.42
2019-01-04T08:17:38.994Z,951.39
2019-01-04T08:18:38.998Z,951.41
2019-01-04T08:19:38.967Z,951.43
2019-01-04T08:20:38.945Z,951.41
2019-01-04T08:21:38.938Z,951.40
2019-01-04T08:22:38.932Z,951.40
2019-01-04T08:23:38.934Z,951.42
2019-01-04T08:24:38.903Z,951.41
2019-01-04T08:25:38.901Z,951.44
2019-01-04T08:26:38.884Z,951.41
2019-01-04T08:27:38.880Z,951.40
2019-01-04T08:28:38.882Z,951.39
2019-01-04T08:29:38.858Z,951.38
2019-01-04T08:30:38.837Z,951.38
2019-01-04T08:31:38.832Z,951.42
2019-01-04T08:32:38.817Z,951.39
2019-01-04T08:33:38.826Z,951.44
2019-01-04T08:34:38.800Z,951.45
2019-01-04T08:35:38.782Z,951.44
2019-01-04T08:36:38.781Z,951.44
2019-01-04T08:37:38.788Z,951.47
2019-01-04T08:38:38.780Z,951.45
2019-01-04T08:39:38.740Z,951.43
2019-01-04T08:40:38.732Z,951.42
2019-01-04T08:41:38.726Z,951.43
2019-01-04T08:42:38.716Z,951.36
2019-01-04T08:43:38.743Z,951.43
2019-01-04T08:44:38.686Z,951.42
2019-01-04T08:45:38.682Z,951.37
2019-01-04T08:46:38.688Z,951.41
2019-01-04T08:47:38.652Z,951.44
2019-01-04T08:48:38.664Z,951.45
2019-01-04T08:49:38.636Z,951.40
2019-01-04T08:50:38.627Z,951.40
2019-01-04T08:51:38.615Z,951.37
2019-01-04T08:52:38.596Z,951.45
2019-01-04T08:53:38.641Z,951.35
2019-01-04T08:54:38.585Z,951.36
2019-01-04T08:55:38.576Z,951.43
2019-01-04T08:56:38.672Z,951.37
2019-01-04T08:57:38.549Z,951.36
2019-01-04T08:58:38.570Z,951.39
2019-01-04T08:59:38.549Z,951.38
2019-01-04T09:00:38.517Z,951.31
2019-01-04T09:01:38.513Z,951.34
2019-01-04T09:02:38.486Z,951.29
2019-01-04T09:03:38.487Z,951.31
2019-01-04T09:04:38.481Z,951.32
2019-01-04T09:05:38.455Z,951.34
2019-01-04T09:06:38.452Z,951.37
2019-01-04T09:07:38.445Z,951.40
2019-01-04T09:08:38.420Z,951.36
2019-01-04T09:09:38.426Z,951.43
2019-01-04T09:10:38.400Z,951.34
2019-01-04T09:11:38.390Z,951.36
2019-01-04T09:12:38.379Z,951.32
2019-01-04T09:13:38.376Z,951.35
2019-01-04T09:14:38.372Z,951.35
2019-01-04T09:15:38.353Z,951.40
2019-01-04T09:16:38.334Z,951.41
2019-01-04T09:17:38.326Z,951.41
2019-01-04T09:18:38.316Z,951.44
2019-01-04T09:19:38.328Z,951.38
2019-01-04T09:20:38.294Z,951.43
2019-01-04T09:21:38.295Z,951.47
2019-01-04T09:22:38.270Z,951.46
2019-01-04T09:23:38.265Z,951.45
2019-01-04T09:24:38.264Z,951.46
2019-01-04T09:25:38.251Z,951.46
2019-01-04T09:26:38.237Z,951.51
2019-01-04T09:27:38.938Z,951.48
2019-01-04T09:28:38.205Z,951.51
2019-01-04T09:29:38.206Z,951.43
2019-01-04T09:30:38.181Z,951.49
2019-01-04T09:31:38.188Z,951.55
2019-01-04T09:32:38.174Z,951.56
2019-01-04T09:33:38.169Z,951.57
2019-01-04T09:34:38.172Z,951.57
2019-01-04T09:35:38.135Z,951.51
2019-01-04T09:36:38.124Z,951.57
2019-01-04T09:37:38.118Z,951.54
2019-01-04T09:38:38.102Z,951.50
2019-01-04T09:39:38.085Z,951.49
2019-01-04T09:40:38.088Z,951.46
2019-01-04T09:41:38.078Z,951.47
2019-01-04T09:42:38.054Z,951.49
2019-01-04T09:43:38.046Z,951.47
2019-01-04T09:44:38.037Z,951.50
2019-01-04T09:45:38.042Z,951.46
2019-01-04T09:46:38.018Z,951.48
2019-01-04T09:47:38.004Z,951.49
2019-01-04T09:48:37.992Z,951.51
2019-01-04T09:49:37.983Z,951.54
2019-01-04T09:50:38.009Z,951.51
2019-01-04T09:51:37.952Z,951.48
2019-01-04T09:52:37.942Z,951.53
2019-01-04T09:53:37.941Z,951.49
2019-01-04T09:54:37.926Z,951.54
2019-01-04T09:55:37.947Z,951.46
2019-01-04T09:56:37.894Z,951.46
2019-01-04T09:57:37.885Z,951.46
2019-01-04T09:58:37.880Z,951.48
2019-01-04T09:59:37.861Z,951.43
2019-01-04T10:00:37.878Z,951.38
2019-01-04T10:01:37.848Z,951.43
2019-01-04T10:02:37.827Z,951.41
2019-01-04T10:03:37.816Z,951.39
2019-01-04T10:04:37.808Z,951.41
2019-01-04T10:05:37.819Z,951.43
2019-01-04T10:06:37.782Z,951.39
2019-01-04T10:07:37.791Z,951.38
2019-01-04T10:08:37.761Z,951.37
2019-01-04T10:09:37.748Z,951.35
2019-01-04T10:10:37.753Z,951.32
2019-01-04T10:11:37.729Z,951.30
2019-01-04T10:12:38.581Z,951.28
2019-01-04T10:13:37.718Z,951.31
2019-01-04T10:14:37.703Z,951.28
2019-01-04T10:15:37.699Z,951.25
2019-01-04T10:16:37.675Z,951.23
2019-01-04T10:17:37.658Z,951.25
2019-01-04T10:18:37.675Z,951.22
2019-01-04T10:19:37.637Z,951.21
2019-01-04T10:20:37.659Z,951.20
2019-01-04T10:21:37.620Z,951.17
2019-01-04T10:22:37.601Z,951.19
2019-01-04T10:23:37.600Z,951.19
2019-01-04T10:24:37.603Z,951.14
2019-01-04T10:25:37.573Z,951.13
2019-01-04T10:26:37.583Z,951.10
2019-01-04T10:27:37.546Z,951.09
2019-01-04T10:28:37.542Z,951.08
2019-01-04T10:29:37.527Z,951.07
2019-01-04T10:30:37.531Z,951.07
2019-01-04T10:31:37.532Z,951.04
2019-01-04T10:32:37.491Z,951.03
2019-01-04T10:33:37.479Z,951.00
2019-01-04T10:34:38.007Z,950.98
2019-01-04T10:35:37.457Z,951.00
2019-01-04T10:36:37.482Z,950.99
2019-01-04T10:37:37.438Z,950.97
2019-01-04T10:38:37.421Z,950.94
2019-01-04T10:39:37.411Z,950.90
2019-01-04T10:40:37.423Z,950.91
2019-01-04T10:41:37.403Z,950.86
2019-01-04T10:42:37.411Z,950.83
2019-01-04T10:43:37.366Z,950.88
2019-01-04T10:44:37.398Z,950.85
2019-01-04T10:45:37.350Z,950.87
2019-01-04T10:46:37.357Z,950.81
2019-01-04T10:47:37.328Z,950.83
2019-01-04T10:48:37.324Z,950.81
2019-01-04T10:49:37.359Z,950.82
2019-01-04T10:50:37.287Z,950.80
2019-01-04T10:51:37.292Z,950.79
2019-01-04T10:52:37.272Z,950.74
2019-01-04T10:53:37.259Z,950.74
2019-01-04T10:54:37.245Z,950.69
2019-01-04T10:55:37.238Z,950.71
2019-01-04T10:56:37.261Z,950.64
2019-01-04T10:57:37.220Z,950.66
2019-01-04T10:58:37.202Z,950.65
2019-01-04T10:59:37.193Z,950.59
2019-01-04T11:00:37.177Z,950.58
2019-01-04T11:01:37.185Z,950.59
2019-01-04T11:02:37.160Z,950.59
2019-01-04T11:03:37.143Z,950.54
2019-01-04T11:04:37.142Z,950.54
2019-01-04T11:05:37.122Z,950.51
2019-01-04T11:06:37.126Z,950.53
2019-01-04T11:07:37.099Z,950.47
2019-01-04T11:08:37.099Z,950.47
2019-01-04T11:09:37.084Z,950.45
2019-01-04T11:10:37.078Z,950.41
2019-01-04T11:11:37.080Z,950.42
2019-01-04T11:12:37.043Z,950.47
2019-01-04T11:13:37.050Z,950.40
2019-01-04T11:14:37.032Z,950.37
2019-01-04T11:15:37.018Z,950.34
2019-01-04T11:16:37.048Z,950.33
2019-01-04T11:17:36.989Z,950.29
2019-01-04T11:18:36.980Z,950.31
2019-01-04T11:19:36.969Z,950.31
2019-01-04T11:20:36.972Z,950.27
2019-01-04T11:21:36.962Z,950.25
2019-01-04T11:22:36.951Z,950.26
2019-01-04T11:23:36.925Z,950.19
2019-01-04T11:24:36.948Z,950.20
2019-01-04T11:25:36.906Z,950.17
2019-01-04T11:26:36.901Z,950.16
2019-01-04T11:27:36.896Z,950.13
2019-01-04T11:28:36.873Z,950.13
2019-01-04T11:29:36.858Z,950.14
2019-01-04T11:30:36.845Z,950.09
2019-01-04T11:31:36.836Z,950.09
2019-01-04T11:32:37.674Z,950.02
2019-01-04T11:33:36.821Z,950.00
2019-01-04T11:34:36.843Z,949.97
2019-01-04T11:35:36.788Z,949.97
2019-01-04T11:36:36.779Z,949.93
2019-01-04T11:37:36.785Z,949.90
2019-01-04T11:38:36.771Z,949.90
2019-01-04T11:39:36.756Z,949.88
2019-01-04T11:40:36.742Z,949.87
2019-01-04T11:41:36.731Z,949.89
2019-01-04T11:42:36.727Z,949.91
2019-01-04T11:43:36.712Z,949.96
2019-01-04T11:44:36.703Z,950.02
2019-01-04T11:45:36.676Z,950.00
2019-01-04T11:46:36.670Z,949.96
2019-01-04T11:47:36.671Z,949.99
2019-01-04T11:48:36.643Z,949.95
2019-01-04T11:49:36.652Z,949.95
2019-01-04T11:50:36.621Z,949.96
2019-01-04T11:51:36.612Z,949.96
2019-01-04T11:52:36.616Z,949.91
2019-01-04T11:53:36.586Z,949.89
2019-01-04T11:54:36.577Z,949.88
2019-01-04T11:55:36.576Z,949.86
2019-01-04T11:56:36.574Z,949.83
2019-01-04T11:57:36.573Z,949.89
2019-01-04T11:58:36.532Z,949.91
2019-01-04T11:59:36.522Z,949.92
2019-01-04T12:00:36.513Z,949.91
2019-01-04T12:01:36.508Z,949.91
2019-01-04T12:02:36.507Z,949.92
2019-01-04T12:03:36.508Z,949.90
2019-01-04T12:04:36.463Z,949.94
2019-01-04T12:05:36.458Z,949.92
2019-01-04T12:06:36.442Z,949.89
2019-01-04T12:07:36.443Z,949.90
2019-01-04T12:08:36.460Z,949.92
2019-01-04T12:09:36.429Z,949.85
2019-01-04T12:10:36.400Z,949.86
2019-01-04T12:11:36.387Z,949.84
2019-01-04T12:12:36.384Z,949.81
2019-01-04T12:13:36.386Z,949.84
2019-01-04T12:14:41.401Z,949.80
2019-01-04T12:15:37.348Z,949.81
2019-01-04T12:16:36.334Z,949.79
2019-01-04T12:17:36.323Z,949.77
2019-01-04T12:18:36.334Z,949.79
2019-01-04T12:19:36.320Z,949.73
2019-01-04T12:20:36.297Z,949.78
2019-01-04T12:21:36.284Z,949.77
2019-01-04T12:22:36.265Z,949.72
2019-01-04T12:23:36.432Z,949.72
2019-01-04T12:24:36.720Z,949.75
2019-01-04T12:25:36.666Z,949.75
2019-01-04T12:26:36.806Z,949.67
2019-01-04T12:27:36.229Z,949.71
2019-01-04T12:28:36.565Z,949.71